Time,TemperatureF,DewpointF,PressureIn,WindDirection,WindDirectionDegrees,WindSpeedMPH,WindSpeedGustMPH,Humidity,HourlyPrecipIn,Conditions,Clouds,dailyrainin,SoftwareType,DateUTC
2013-02-19 00:21:00,42.0,10.0,30.31,NW,312,3.0,-999.0,27,-99.99,,,-99.99,,2013-02-19 07:21:00,
2013-02-19 00:31:00,42.0,11.0,30.30,NW,312,2.0,-999.0,28,-99.99,,,-99.99,,2013-02-19 07:31:00,
2013-02-19 00:41:00,42.0,11.0,30.30,NW,312,2.0,-999.0,28,-99.99,,,-99.99,,2013-02-19 07:41:00,
2013-02-19 00:52:00,42.0,11.0,30.30,North,-999,-999.0,-999.0,28,-99.99,,,-99.99,,2013-02-19 07:52:00,
2013-02-19 01:01:00,40.0,9.0,30.31,NW,312,2.0,-999.0,27,-99.99,,,-99.99,,2013-02-19 08:01:00,
2013-02-19 01:11:00,40.0,9.0,30.31,NW,312,2.0,-999.0,27,-99.99,,,-99.99,,2013-02-19 08:11:00,
2013-02-19 01:21:00,41.0,10.0,30.31,NW,312,2.0,-999.0,28,-99.99,,,-99.99,,2013-02-19 08:21:00,
2013-02-19 01:31:00,41.0,9.0,30.30,NW,312,3.0,-999.0,26,-99.99,,,-99.99,,2013-02-19 08:31:00,
2013-02-19 01:41:00,41.0,9.0,30.30,NW,312,3.0,-999.0,26,-99.99,,,-99.99,,2013-02-19 08:41:00,
2013-02-19 01:52:00,40.0,10.0,30.30,NW,312,1.0,-999.0,28,-99.99,,,-99.99,,2013-02-19 08:52:00,
2013-02-19 02:01:00,39.0,10.0,30.30,North,-999,-999.0,-999.0,30,-99.99,,,-99.99,,2013-02-19 09:01:00,
2013-02-19 02:11:00,39.0,10.0,30.30,North,-999,-999.0,-999.0,30,-99.99,,,-99.99,,2013-02-19 09:11:00,
2013-02-19 02:21:00,39.0,10.0,30.29,North,-999,-999.0,-999.0,30,-99.99,,,-99.99,,2013-02-19 09:21:00,
2013-02-19 02:31:00,44.0,15.0,30.29,North,-999,-999.0,-999.0,30,-99.99,,,-99.99,,2013-02-19 09:31:00,
2013-02-19 02:41:00,44.0,15.0,30.29,North,-999,-999.0,-999.0,30,-99.99,,,-99.99,,2013-02-19 09:41:00,
2013-02-19 02:52:00,43.0,14.0,30.26,West,261,1.0,-999.0,30,-99.99,,,-99.99,,2013-02-19 09:52:00,
2013-02-19 03:01:00,46.0,8.0,30.27,SSE,157,3.0,-999.0,21,-99.99,,,-99.99,,2013-02-19 10:01:00,
2013-02-19 03:11:00,46.0,8.0,30.27,SSE,157,3.0,-999.0,21,-99.99,,,-99.99,,2013-02-19 10:11:00,
2013-02-19 03:21:00,47.0,8.0,30.26,SSW,195,4.0,-999.0,20,-99.99,,,-99.99,,2013-02-19 10:21:00,
2013-02-19 03:31:00,47.0,7.0,30.26,SSW,193,3.0,-999.0,19,-99.99,,,-99.99,,2013-02-19 10:31:00,
2013-02-19 03:41:00,47.0,7.0,30.26,SSW,193,3.0,-999.0,19,-99.99,,,-99.99,,2013-02-19 10:41:00,
2013-02-19 03:52:00,48.0,8.0,30.24,SSW,200,3.0,-999.0,19,-99.99,,,-99.99,,2013-02-19 10:52:00,
2013-02-19 04:01:00,47.0,7.0,30.26,SSW,198,0.0,-999.0,19,-99.99,,,-99.99,,2013-02-19 11:01:00,
2013-02-19 04:11:00,47.0,7.0,30.26,SSW,198,0.0,-999.0,19,-99.99,,,-99.99,,2013-02-19 11:11:00,
2013-02-19 04:21:00,43.0,7.0,30.26,SSW,198,1.0,-999.0,22,-99.99,,,-99.99,,2013-02-19 11:21:00,
2013-02-19 04:31:00,44.0,7.0,30.24,WSW,244,3.0,-999.0,21,-99.99,,,-99.99,,2013-02-19 11:31:00,
2013-02-19 04:42:00,44.0,7.0,30.24,WSW,244,3.0,-999.0,21,-99.99,,,-99.99,,2013-02-19 11:42:00,
2013-02-19 04:52:00,43.0,7.0,30.24,WSW,244,2.0,-999.0,22,-99.99,,,-99.99,,2013-02-19 11:52:00,
2013-02-19 05:01:00,43.0,10.0,30.24,WSW,244,2.0,-999.0,25,-99.99,,,-99.99,,2013-02-19 12:01:00,
2013-02-19 05:12:00,43.0,10.0,30.24,WSW,244,2.0,-999.0,25,-99.99,,,-99.99,,2013-02-19 12:12:00,
2013-02-19 05:21:00,42.0,7.0,30.24,WSW,244,1.0,-999.0,23,-99.99,,,-99.99,,2013-02-19 12:21:00,
2013-02-19 05:32:00,43.0,9.0,30.24,WSW,244,2.0,-999.0,24,-99.99,,,-99.99,,2013-02-19 12:32:00,
2013-02-19 05:41:00,43.0,9.0,30.24,WSW,244,2.0,-999.0,24,-99.99,,,-99.99,,2013-02-19 12:41:00,
2013-02-19 05:52:00,43.0,9.0,30.24,WSW,246,3.0,-999.0,24,-99.99,,,-99.99,,2013-02-19 12:52:00,
2013-02-19 06:01:00,40.0,9.0,30.24,WSW,247,1.0,-999.0,27,-99.99,,,-99.99,,2013-02-19 13:01:00,
2013-02-19 06:11:00,40.0,9.0,30.24,WSW,247,1.0,-999.0,27,-99.99,,,-99.99,,2013-02-19 13:11:00,
2013-02-19 06:22:00,41.0,10.0,30.25,WSW,247,1.0,-999.0,28,-99.99,,,-99.99,,2013-02-19 13:22:00,
2013-02-19 06:31:00,46.0,14.0,30.26,WNW,285,3.0,-999.0,27,-99.99,,,-99.99,,2013-02-19 13:31:00,
2013-02-19 06:41:00,46.0,14.0,30.26,WNW,285,3.0,-999.0,27,-99.99,,,-99.99,,2013-02-19 13:41:00,
2013-02-19 06:52:00,51.0,11.0,30.26,SSE,161,7.0,-999.0,20,-99.99,,,-99.99,,2013-02-19 13:52:00,
2013-02-19 07:01:00,51.0,11.0,30.25,SW,219,7.0,-999.0,20,-99.99,,,-99.99,,2013-02-19 14:01:00,
2013-02-19 07:21:00,51.0,11.0,30.26,North,-999,-999.0,-999.0,20,-99.99,,,-99.99,,2013-02-19 14:21:00,
2013-02-19 07:32:00,50.0,9.0,30.25,SSW,210,7.0,-999.0,19,-99.99,,,-99.99,,2013-02-19 14:32:00,
2013-02-19 07:41:00,50.0,9.0,30.25,SSW,210,7.0,-999.0,19,-99.99,,,-99.99,,2013-02-19 14:41:00,
2013-02-19 07:52:00,50.0,8.0,30.26,North,-999,-999.0,-999.0,18,-99.99,,,-99.99,,2013-02-19 14:52:00,
2013-02-19 08:01:00,52.0,11.0,30.25,SSW,193,3.0,-999.0,19,-99.99,,,-99.99,,2013-02-19 15:01:00,
2013-02-19 08:21:00,54.0,10.0,30.26,SW,222,11.0,-999.0,17,-99.99,,,-99.99,,2013-02-19 15:21:00,
2013-02-19 08:31:00,55.0,11.0,30.26,SW,222,9.0,-999.0,17,-99.99,,,-99.99,,2013-02-19 15:31:00,
2013-02-19 08:41:00,55.0,11.0,30.26,SW,222,9.0,-999.0,17,-99.99,,,-99.99,,2013-02-19 15:41:00,
2013-02-19 08:52:00,56.0,13.0,30.25,SW,222,8.0,-999.0,18,-99.99,,,-99.99,,2013-02-19 15:52:00,
2013-02-19 09:01:00,56.0,14.0,30.24,SSW,196,9.0,-999.0,19,-99.99,,,-99.99,,2013-02-19 16:01:00,
2013-02-19 09:21:00,56.0,14.0,30.24,South,184,10.0,-999.0,19,-99.99,,,-99.99,,2013-02-19 16:21:00,
2013-02-19 09:31:00,57.0,16.0,30.25,SSW,195,12.0,-999.0,20,-99.99,,,-99.99,,2013-02-19 16:31:00,
2013-02-19 09:41:00,57.0,16.0,30.25,SSW,195,12.0,-999.0,20,-99.99,,,-99.99,,2013-02-19 16:41:00,
2013-02-19 09:52:00,58.0,17.0,30.23,South,182,11.0,-999.0,20,-99.99,,,-99.99,,2013-02-19 16:52:00,
2013-02-19 10:01:00,57.0,17.0,30.24,SSE,161,13.0,-999.0,21,-99.99,,,-99.99,,2013-02-19 17:01:00,
2013-02-19 10:11:00,57.0,17.0,30.24,SSE,161,13.0,-999.0,21,-99.99,,,-99.99,,2013-02-19 17:11:00,
2013-02-19 10:21:00,57.0,19.0,30.23,SSW,195,14.0,-999.0,22,-99.99,,,-99.99,,2013-02-19 17:21:00,
2013-02-19 10:31:00,58.0,19.0,30.22,SSW,193,14.0,-999.0,22,-99.99,,,-99.99,,2013-02-19 17:31:00,
2013-02-19 10:41:00,58.0,19.0,30.22,SSW,193,14.0,-999.0,22,-99.99,,,-99.99,,2013-02-19 17:41:00,
2013-02-19 10:52:00,57.0,20.0,30.22,South,169,16.0,-999.0,23,-99.99,,,-99.99,,2013-02-19 17:52:00,
2013-02-19 11:01:00,57.0,20.0,30.24,SE,144,12.0,-999.0,23,-99.99,,,-99.99,,2013-02-19 18:01:00,
2013-02-19 11:11:00,57.0,20.0,30.24,SE,144,12.0,-999.0,23,-99.99,,,-99.99,,2013-02-19 18:11:00,
2013-02-19 11:21:00,58.0,22.0,30.23,SSW,196,15.0,-999.0,25,-99.99,,,-99.99,,2013-02-19 18:21:00,
2013-02-19 11:31:00,57.0,23.0,30.20,SSW,198,16.0,-999.0,27,-99.99,,,-99.99,,2013-02-19 18:31:00,
2013-02-19 11:41:00,58.0,25.0,30.21,SSE,160,13.0,-999.0,28,-99.99,,,-99.99,,2013-02-19 18:41:00,
2013-02-19 11:52:00,58.0,25.0,30.21,SSE,160,13.0,-999.0,28,-99.99,,,-99.99,,2013-02-19 18:52:00,
2013-02-19 12:01:00,58.0,24.0,30.21,SW,223,14.0,-999.0,27,-99.99,,,-99.99,,2013-02-19 19:01:00,
2013-02-19 12:11:00,58.0,24.0,30.21,SW,223,14.0,-999.0,27,-99.99,,,-99.99,,2013-02-19 19:11:00,
2013-02-19 12:21:00,58.0,24.0,30.20,South,174,16.0,-999.0,27,-99.99,,,-99.99,,2013-02-19 19:21:00,
2013-02-19 12:31:00,58.0,26.0,30.18,SW,223,16.0,-999.0,29,-99.99,,,-99.99,,2013-02-19 19:31:00,
2013-02-19 12:41:00,58.0,26.0,30.18,SW,223,16.0,-999.0,29,-99.99,,,-99.99,,2013-02-19 19:41:00,
2013-02-19 12:52:00,58.0,26.0,30.17,SSE,164,15.0,-999.0,29,-99.99,,,-99.99,,2013-02-19 19:52:00,
2013-02-19 13:01:00,59.0,28.0,30.18,SW,215,19.0,-999.0,30,-99.99,,,-99.99,,2013-02-19 20:01:00,
2013-02-19 13:11:00,59.0,28.0,30.18,SW,215,19.0,-999.0,30,-99.99,,,-99.99,,2013-02-19 20:11:00,
2013-02-19 13:21:00,58.0,27.0,30.18,SSW,208,13.0,-999.0,30,-99.99,,,-99.99,,2013-02-19 20:21:00,
2013-02-19 13:31:00,58.0,28.0,30.16,SSE,150,13.0,-999.0,32,-99.99,,,-99.99,,2013-02-19 20:31:00,
2013-02-19 13:41:00,58.0,28.0,30.16,SSE,150,13.0,-999.0,32,-99.99,,,-99.99,,2013-02-19 20:41:00,
2013-02-19 13:52:00,58.0,30.0,30.15,SW,226,15.0,-999.0,34,-99.99,,,-99.99,,2013-02-19 20:52:00,
2013-02-19 14:01:00,58.0,31.0,30.15,South,176,17.0,-999.0,36,-99.99,,,-99.99,,2013-02-19 21:01:00,
2013-02-19 14:11:00,58.0,31.0,30.15,South,176,17.0,-999.0,36,-99.99,,,-99.99,,2013-02-19 21:11:00,
2013-02-19 14:21:00,57.0,33.0,30.14,South,176,18.0,-999.0,40,-99.99,,,-99.99,,2013-02-19 21:21:00,
2013-02-19 14:31:00,58.0,31.0,30.15,South,184,11.0,-999.0,36,-99.99,,,-99.99,,2013-02-19 21:31:00,
2013-02-19 14:42:00,58.0,31.0,30.15,South,184,11.0,-999.0,36,-99.99,,,-99.99,,2013-02-19 21:42:00,
2013-02-19 14:51:00,59.0,31.0,30.15,SW,220,15.0,-999.0,35,-99.99,,,-99.99,,2013-02-19 21:51:00,
2013-02-19 15:01:00,59.0,31.0,30.16,West,260,12.0,-999.0,35,-99.99,,,-99.99,,2013-02-19 22:01:00,
2013-02-19 15:11:00,59.0,31.0,30.16,West,260,12.0,-999.0,35,-99.99,,,-99.99,,2013-02-19 22:11:00,
2013-02-19 15:21:00,59.0,31.0,30.13,SW,232,10.0,-999.0,34,-99.99,,,-99.99,,2013-02-19 22:21:00,
2013-02-19 15:31:00,57.0,32.0,30.13,SSW,196,16.0,-999.0,39,-99.99,,,-99.99,,2013-02-19 22:31:00,
2013-02-19 15:41:00,57.0,32.0,30.13,SSW,196,16.0,-999.0,39,-99.99,,,-99.99,,2013-02-19 22:41:00,
2013-02-19 15:52:00,58.0,33.0,30.13,South,182,12.0,-999.0,39,-99.99,,,-99.99,,2013-02-19 22:52:00,
2013-02-19 16:01:00,56.0,34.0,30.11,SSW,205,14.0,-999.0,44,-99.99,,,-99.99,,2013-02-19 23:01:00,
2013-02-19 16:11:00,56.0,34.0,30.11,SSW,205,14.0,-999.0,44,-99.99,,,-99.99,,2013-02-19 23:11:00,
2013-02-19 16:21:00,55.0,35.0,30.11,SSW,198,15.0,-999.0,46,-99.99,,,-99.99,,2013-02-19 23:21:00,
2013-02-19 16:31:00,55.0,35.0,30.10,South,186,17.0,-999.0,47,-99.99,,,-99.99,,2013-02-19 23:31:00,
2013-02-19 16:41:00,55.0,35.0,30.10,South,186,17.0,-999.0,47,-99.99,,,-99.99,,2013-02-19 23:41:00,
2013-02-19 16:52:00,55.0,34.0,30.10,South,182,13.0,-999.0,45,-99.99,,,-99.99,,2013-02-19 23:52:00,
2013-02-19 17:01:00,55.0,33.0,30.10,SSW,199,14.0,-999.0,44,-99.99,,,-99.99,,2013-02-20 00:01:00,
2013-02-19 17:11:00,55.0,33.0,30.10,SSW,199,14.0,-999.0,44,-99.99,,,-99.99,,2013-02-20 00:11:00,
2013-02-19 17:21:00,54.0,34.0,30.10,South,172,17.0,-999.0,46,-99.99,,,-99.99,,2013-02-20 00:21:00,
2013-02-19 17:31:00,53.0,33.0,30.11,South,186,18.0,-999.0,46,-99.99,,,-99.99,,2013-02-20 00:31:00,
2013-02-19 17:41:00,53.0,33.0,30.11,South,186,18.0,-999.0,46,-99.99,,,-99.99,,2013-02-20 00:41:00,
2013-02-19 17:52:00,53.0,32.0,30.11,South,178,15.0,-999.0,44,-99.99,,,-99.99,,2013-02-20 00:52:00,
2013-02-19 18:02:00,53.0,31.0,30.11,South,186,17.0,-999.0,42,-99.99,,,-99.99,,2013-02-20 01:02:00,
2013-02-19 18:11:00,53.0,31.0,30.11,South,186,17.0,-999.0,42,-99.99,,,-99.99,,2013-02-20 01:11:00,
2013-02-19 18:21:00,53.0,30.0,30.11,SSE,154,16.0,-999.0,41,-99.99,,,-99.99,,2013-02-20 01:21:00,
2013-02-19 18:31:00,53.0,29.0,30.11,SSW,209,15.0,-999.0,40,-99.99,,,-99.99,,2013-02-20 01:31:00,
2013-02-19 18:41:00,53.0,29.0,30.11,SSW,209,15.0,-999.0,40,-99.99,,,-99.99,,2013-02-20 01:41:00,
2013-02-19 18:52:00,52.0,30.0,30.11,South,175,15.0,-999.0,43,-99.99,,,-99.99,,2013-02-20 01:52:00,
2013-02-19 19:01:00,50.0,35.0,30.09,South,172,16.0,-999.0,56,-99.99,,,-99.99,,2013-02-20 02:01:00,
2013-02-19 19:11:00,50.0,35.0,30.09,South,172,16.0,-999.0,56,-99.99,,,-99.99,,2013-02-20 02:11:00,
2013-02-19 19:21:00,49.0,35.0,30.10,SSE,151,13.0,-999.0,59,-99.99,,,-99.99,,2013-02-20 02:21:00,
2013-02-19 19:31:00,49.0,35.0,30.09,South,175,10.0,-999.0,58,-99.99,,,-99.99,,2013-02-20 02:31:00,
2013-02-19 19:41:00,49.0,35.0,30.09,South,175,10.0,-999.0,58,-99.99,,,-99.99,,2013-02-20 02:41:00,
2013-02-19 19:52:00,49.0,35.0,30.09,South,175,10.0,-999.0,59,-99.99,,,-99.99,,2013-02-20 02:52:00,
2013-02-19 20:01:00,48.0,35.0,30.09,SSE,168,12.0,-999.0,61,-99.99,,,-99.99,,2013-02-20 03:01:00,
2013-02-19 20:11:00,48.0,35.0,30.09,SSE,168,12.0,-999.0,61,-99.99,,,-99.99,,2013-02-20 03:11:00,
2013-02-19 20:21:00,47.0,35.0,30.09,SSE,164,13.0,-999.0,64,-99.99,,,-99.99,,2013-02-20 03:21:00,
2013-02-19 20:31:00,47.0,34.0,30.08,South,172,13.0,-999.0,61,-99.99,,,-99.99,,2013-02-20 03:31:00,
2013-02-19 20:41:00,47.0,34.0,30.08,South,172,13.0,-999.0,61,-99.99,,,-99.99,,2013-02-20 03:41:00,
2013-02-19 20:52:00,48.0,34.0,30.08,SSE,164,12.0,-999.0,58,-99.99,,,-99.99,,2013-02-20 03:52:00,
2013-02-19 21:01:00,49.0,34.0,30.09,SSW,208,14.0,-999.0,57,-99.99,,,-99.99,,2013-02-20 04:01:00,
2013-02-19 21:11:00,49.0,34.0,30.09,SSW,208,14.0,-999.0,57,-99.99,,,-99.99,,2013-02-20 04:11:00,
2013-02-19 21:21:00,47.0,35.0,30.06,SSE,168,14.0,-999.0,63,-99.99,,,-99.99,,2013-02-20 04:21:00,
2013-02-19 21:31:00,47.0,35.0,30.06,SSE,168,14.0,-999.0,63,-99.99,,,-99.99,,2013-02-20 04:31:00,
2013-02-19 21:41:00,47.0,35.0,30.06,SSE,168,14.0,-999.0,63,-99.99,,,-99.99,,2013-02-20 04:41:00,
2013-02-19 21:52:00,49.0,31.0,30.07,SSW,196,16.0,-999.0,50,-99.99,,,-99.99,,2013-02-20 04:52:00,
2013-02-19 22:01:00,50.0,27.0,30.06,SSW,213,19.0,-999.0,40,-99.99,,,-99.99,,2013-02-20 05:01:00,
2013-02-19 22:22:00,50.0,27.0,30.07,SSW,210,20.0,-999.0,40,-99.99,,,-99.99,,2013-02-20 05:22:00,
2013-02-19 22:31:00,49.0,27.0,30.07,SW,227,14.0,-999.0,42,-99.99,,,-99.99,,2013-02-20 05:31:00,
2013-02-19 22:42:00,49.0,27.0,30.07,SW,227,14.0,-999.0,42,-99.99,,,-99.99,,2013-02-20 05:42:00,
2013-02-19 22:52:00,49.0,25.0,30.08,SSW,196,11.0,-999.0,39,-99.99,,,-99.99,,2013-02-20 05:52:00,
2013-02-19 23:01:00,49.0,24.0,30.08,WSW,237,13.0,-999.0,37,-99.99,,,-99.99,,2013-02-20 06:01:00,
2013-02-19 23:11:00,48.0,21.0,30.08,SSW,209,11.0,-999.0,34,-99.99,,,-99.99,,2013-02-20 06:11:00,
2013-02-19 23:21:00,48.0,21.0,30.08,SSW,209,11.0,-999.0,34,-99.99,,,-99.99,,2013-02-20 06:21:00,
2013-02-19 23:31:00,48.0,20.0,30.07,SSW,210,14.0,-999.0,32,-99.99,,,-99.99,,2013-02-20 06:31:00,
2013-02-19 23:41:00,48.0,20.0,30.07,SSW,210,14.0,-999.0,32,-99.99,,,-99.99,,2013-02-20 06:41:00,
2013-02-19 23:52:00,48.0,21.0,30.06,SW,236,19.0,-999.0,34,-99.99,,,-99.99,,2013-02-20 06:52:00,